sensor_id;sensor_type;location;lat;lon;timestamp;pressure;altitude;pressure_sealevel;temperature;humidity
19884;BME280;10104;50.732;10.174;2024-01-15T00:02:27;96418.09;;;-2.18;100.00
19884;BME280;10104;50.732;10.174;2024-01-15T00:05:07;96412.47;;;-2.13;100.00
19884;BME280;10104;50.732;10.174;2024-01-15T00:07:48;96400.19;;;-2.11;100.00
19884;BME280;10104;50.732;10.174;2024-01-15T00:10:28;96397.59;;;-2.11;100.00
19884;BME280;10104;50.732;10.174;2024-01-15T00:13:09;96394.34;;;-2.13;100.00
19884;BME280;10104;50.732;10.174;2024-01-15T00:15:49;96390.78;;;-2.12;100.00
19884;BME280;10104;50.732;10.174;2024-01-15T00:18:29;96392.25;;;-2.10;100.00
19884;BME280;10104;50.732;10.174;2024-01-15T00:21:10;96378.91;;;-2.15;100.00
19884;BME280;10104;50.732;10.174;2024-01-15T00:23:50;96369.22;;;-2.13;100.00
19884;BME280;10104;50.732;10.174;2024-01-15T00:26:30;96378.28;;;-2.17;100.00
19884;BME280;10104;50.732;10.174;2024-01-15T00:29:10;96377.50;;;-2.09;100.00
19884;BME280;10104;50.732;10.174;2024-01-15T00:31:50;96370.72;;;-2.10;100.00
19884;BME280;10104;50.732;10.174;2024-01-15T00:34:30;96379.75;;;-1.96;100.00
19884;BME280;10104;50.732;10.174;2024-01-15T00:37:10;96377.59;;;-2.01;100.00
19884;BME280;10104;50.732;10.174;2024-01-15T00:39:50;96377.09;;;-2.05;100.00
19884;BME280;10104;50.732;10.174;2024-01-15T00:42:31;96400.78;;;-1.99;100.00
19884;BME280;10104;50.732;10.174;2024-01-15T00:45:11;96386.47;;;-2.04;100.00
19884;BME280;10104;50.732;10.174;2024-01-15T00:47:52;96387.38;;;-1.95;100.00
19884;BME280;10104;50.732;10.174;2024-01-15T00:50:33;96382.72;;;-1.91;100.00
19884;BME280;10104;50.732;10.174;2024-01-15T00:53:13;96382.72;;;-1.91;100.00
19884;BME280;10104;50.732;10.174;2024-01-15T00:55:53;96380.69;;;-1.97;100.00
19884;BME280;10104;50.732;10.174;2024-01-15T00:58:33;96368.41;;;-1.95;100.00
19884;BME280;10104;50.732;10.174;2024-01-15T01:01:13;96365.38;;;-1.91;100.00
19884;BME280;10104;50.732;10.174;2024-01-15T01:03:54;96374.13;;;-1.92;100.00
19884;BME280;10104;50.732;10.174;2024-01-15T01:06:34;96378.66;;;-1.94;100.00
19884;BME280;10104;50.732;10.174;2024-01-15T01:09:14;96371.16;;;-1.97;100.00
19884;BME280;10104;50.732;10.174;2024-01-15T01:11:54;96369.69;;;-1.99;100.00
19884;BME280;10104;50.732;10.174;2024-01-15T01:14:34;96361.31;;;-1.93;100.00
19884;BME280;10104;50.732;10.174;2024-01-15T01:17:14;96362.50;;;-1.88;100.00
19884;BME280;10104;50.732;10.174;2024-01-15T01:19:54;96362.78;;;-1.91;100.00
19884;BME280;10104;50.732;10.174;2024-01-15T01:22:35;96357.59;;;-1.91;100.00
19884;BME280;10104;50.732;10.174;2024-01-15T01:25:15;96355.00;;;-1.91;100.00
19884;BME280;10104;50.732;10.174;2024-01-15T01:27:55;96360.84;;;-1.89;100.00
19884;BME280;10104;50.732;10.174;2024-01-15T01:30:36;96341.38;;;-1.93;100.00
19884;BME280;10104;50.732;10.174;2024-01-15T01:33:16;96341.44;;;-1.85;100.00
19884;BME280;10104;50.732;10.174;2024-01-15T01:35:56;96343.38;;;-1.87;100.00
19884;BME280;10104;50.732;10.174;2024-01-15T01:38:37;96346.63;;;-1.85;100.00
19884;BME280;10104;50.732;10.174;2024-01-15T01:41:17;96343.31;;;-1.95;100.00
19884;BME280;10104;50.732;10.174;2024-01-15T01:43:57;96331.59;;;-1.99;100.00
19884;BME280;10104;50.732;10.174;2024-01-15T01:46:38;96348.72;;;-2.06;100.00
19884;BME280;10104;50.732;10.174;2024-01-15T01:49:22;96344.03;;;-2.03;100.00
19884;BME280;10104;50.732;10.174;2024-01-15T01:52:05;96344.84;;;-2.02;100.00
19884;BME280;10104;50.732;10.174;2024-01-15T01:54:46;96345.31;;;-2.07;100.00
19884;BME280;10104;50.732;10.174;2024-01-15T01:57:26;96334.25;;;-2.09;100.00
19884;BME280;10104;50.732;10.174;2024-01-15T02:00:07;96340.41;;;-2.10;100.00
19884;BME280;10104;50.732;10.174;2024-01-15T02:02:47;96337.38;;;-2.05;100.00
19884;BME280;10104;50.732;10.174;2024-01-15T02:05:28;96339.53;;;-2.00;100.00
19884;BME280;10104;50.732;10.174;2024-01-15T02:08:08;96329.00;;;-1.99;100.00
19884;BME280;10104;50.732;10.174;2024-01-15T02:10:49;96346.50;;;-2.01;100.00
19884;BME280;10104;50.732;10.174;2024-01-15T02:13:29;96349.09;;;-2.01;100.00
19884;BME280;10104;50.732;10.174;2024-01-15T02:16:09;96362.34;;;-2.04;100.00
19884;BME280;10104;50.732;10.174;2024-01-15T02:18:49;96347.22;;;-2.09;100.00
19884;BME280;10104;50.732;10.174;2024-01-15T02:21:31;96364.13;;;-2.05;100.00
19884;BME280;10104;50.732;10.174;2024-01-15T02:24:12;96354.03;;;-2.08;100.00
19884;BME280;10104;50.732;10.174;2024-01-15T02:26:52;96356.63;;;-2.08;100.00
19884;BME280;10104;50.732;10.174;2024-01-15T02:29:32;96363.44;;;-2.07;100.00
19884;BME280;10104;50.732;10.174;2024-01-15T02:32:13;96353.91;;;-2.06;100.00
19884;BME280;10104;50.732;10.174;2024-01-15T02:34:53;96345.59;;;-2.10;100.00
19884;BME280;10104;50.732;10.174;2024-01-15T02:37:33;96362.41;;;-2.14;100.00
19884;BME280;10104;50.732;10.174;2024-01-15T02:40:13;96345.22;;;-2.15;100.00
19884;BME280;10104;50.732;10.174;2024-01-15T02:42:54;96336.81;;;-2.17;100.00
19884;BME280;10104;50.732;10.174;2024-01-15T02:45:34;96334.03;;;-2.15;100.00
19884;BME280;10104;50.732;10.174;2024-01-15T02:48:14;96330.50;;;-2.14;100.00
19884;BME280;10104;50.732;10.174;2024-01-15T02:50:55;96335.53;;;-2.13;100.00
19884;BME280;10104;50.732;10.174;2024-01-15T02:53:36;96343.44;;;-2.14;100.00
19884;BME280;10104;50.732;10.174;2024-01-15T02:56:17;96340.56;;;-2.11;100.00
19884;BME280;10104;50.732;10.174;2024-01-15T02:58:58;96341.91;;;-2.07;100.00
19884;BME280;10104;50.732;10.174;2024-01-15T03:01:39;96353.16;;;-1.98;100.00
19884;BME280;10104;50.732;10.174;2024-01-15T03:04:19;96351.16;;;-2.05;100.00
19884;BME280;10104;50.732;10.174;2024-01-15T03:06:59;96350.41;;;-1.97;100.00
19884;BME280;10104;50.732;10.174;2024-01-15T03:09:39;96349.75;;;-1.99;100.00
19884;BME280;10104;50.732;10.174;2024-01-15T03:12:20;96362.84;;;-2.00;100.00
19884;BME280;10104;50.732;10.174;2024-01-15T03:15:00;96351.31;;;-2.06;100.00
19884;BME280;10104;50.732;10.174;2024-01-15T03:17:41;96354.78;;;-1.97;100.00
19884;BME280;10104;50.732;10.174;2024-01-15T03:20:22;96356.13;;;-1.93;100.00
19884;BME280;10104;50.732;10.174;2024-01-15T03:23:03;96362.19;;;-1.85;100.00
19884;BME280;10104;50.732;10.174;2024-01-15T03:25:43;96362.03;;;-1.83;100.00
19884;BME280;10104;50.732;10.174;2024-01-15T03:28:24;96365.22;;;-1.89;100.00
19884;BME280;10104;50.732;10.174;2024-01-15T03:31:04;96357.59;;;-1.91;100.00
19884;BME280;10104;50.732;10.174;2024-01-15T03:33:45;96355.97;;;-1.92;100.00
19884;BME280;10104;50.732;10.174;2024-01-15T03:36:25;96363.69;;;-2.00;100.00
19884;BME280;10104;50.732;10.174;2024-01-15T03:39:05;96345.31;;;-2.07;100.00
19884;BME280;10104;50.732;10.174;2024-01-15T03:41:45;96355.00;;;-2.09;100.00
19884;BME280;10104;50.732;10.174;2024-01-15T03:44:25;96350.63;;;-2.08;100.00
19884;BME280;10104;50.732;10.174;2024-01-15T03:47:06;96348.50;;;-2.13;100.00
19884;BME280;10104;50.732;10.174;2024-01-15T03:49:46;96345.09;;;-2.13;100.00
19884;BME280;10104;50.732;10.174;2024-01-15T03:52:26;96352.84;;;-2.13;100.00
19884;BME280;10104;50.732;10.174;2024-01-15T03:55:07;96345.59;;;-2.10;100.00
19884;BME280;10104;50.732;10.174;2024-01-15T03:57:47;96352.94;;;-2.05;100.00
19884;BME280;10104;50.732;10.174;2024-01-15T04:00:27;96334.47;;;-2.02;100.00
19884;BME280;10104;50.732;10.174;2024-01-15T04:03:08;96321.53;;;-2.02;100.00
19884;BME280;10104;50.732;10.174;2024-01-15T04:05:48;96328.56;;;-2.12;100.00
19884;BME280;10104;50.732;10.174;2024-01-15T04:08:28;96326.94;;;-2.13;100.00
19884;BME280;10104;50.732;10.174;2024-01-15T04:11:08;96332.94;;;-2.13;100.00
19884;BME280;10104;50.732;10.174;2024-01-15T04:13:48;96340.84;;;-2.14;100.00
19884;BME280;10104;50.732;10.174;2024-01-15T04:16:29;96334.13;;;-2.07;100.00
19884;BME280;10104;50.732;10.174;2024-01-15T04:19:09;96329.91;;;-2.08;100.00
19884;BME280;10104;50.732;10.174;2024-01-15T04:21:49;96332.94;;;-2.13;100.00
19884;BME280;10104;50.732;10.174;2024-01-15T04:24:31;96323.97;;;-2.18;100.00
19884;BME280;10104;50.732;10.174;2024-01-15T04:27:12;96329.75;;;-2.24;100.00
19884;BME280;10104;50.732;10.174;2024-01-15T04:29:53;96329.22;;;-2.28;100.00
19884;BME280;10104;50.732;10.174;2024-01-15T04:32:33;96319.03;;;-2.29;100.00
19884;BME280;10104;50.732;10.174;2024-01-15T04:35:13;96316.44;;;-2.29;100.00
19884;BME280;10104;50.732;10.174;2024-01-15T04:37:53;96326.94;;;-2.31;100.00
19884;BME280;10104;50.732;10.174;2024-01-15T04:40:33;96319.84;;;-2.29;100.00
19884;BME280;10104;50.732;10.174;2024-01-15T04:43:13;96329.75;;;-2.24;100.00
19884;BME280;10104;50.732;10.174;2024-01-15T04:45:53;96333.59;;;-2.28;100.00
19884;BME280;10104;50.732;10.174;2024-01-15T04:48:34;96345.59;;;-2.27;100.00
19884;BME280;10104;50.732;10.174;2024-01-15T04:51:14;96334.94;;;-2.24;100.00
19884;BME280;10104;50.732;10.174;2024-01-15T04:53:55;96349.53;;;-2.23;100.00
19884;BME280;10104;50.732;10.174;2024-01-15T04:56:35;96341.59;;;-2.22;100.00
19884;BME280;10104;50.732;10.174;2024-01-15T04:59:15;96340.22;;;-2.16;100.00
19884;BME280;10104;50.732;10.174;2024-01-15T05:01:56;96347.81;;;-2.15;100.00
19884;BME280;10104;50.732;10.174;2024-01-15T05:04:36;96342.56;;;-2.05;100.00
19884;BME280;10104;50.732;10.174;2024-01-15T05:07:16;96340.47;;;-2.01;100.00
19884;BME280;10104;50.732;10.174;2024-01-15T05:09:57;96349.16;;;-1.93;100.00
19884;BME280;10104;50.732;10.174;2024-01-15T05:12:38;96340.84;;;-1.96;100.00
19884;BME280;10104;50.732;10.174;2024-01-15T05:15:18;96330.13;;;-2.01;100.00
19884;BME280;10104;50.732;10.174;2024-01-15T05:17:58;96334.69;;;-1.95;100.00
19884;BME280;10104;50.732;10.174;2024-01-15T05:20:39;96326.78;;;-1.94;100.00
19884;BME280;10104;50.732;10.174;2024-01-15T05:23:19;96331.97;;;-1.94;100.00
19884;BME280;10104;50.732;10.174;2024-01-15T05:25:59;96324.78;;;-2.00;100.00
19884;BME280;10104;50.732;10.174;2024-01-15T05:28:43;96336.78;;;-1.99;100.00
19884;BME280;10104;50.732;10.174;2024-01-15T05:31:23;96332.44;;;-1.98;100.00
19884;BME280;10104;50.732;10.174;2024-01-15T05:34:04;96317.38;;;-1.95;100.00
19884;BME280;10104;50.732;10.174;2024-01-15T05:36:44;96314.63;;;-1.93;100.00
19884;BME280;10104;50.732;10.174;2024-01-15T05:39:26;96327.16;;;-1.89;100.00
19884;BME280;10104;50.732;10.174;2024-01-15T05:42:07;96321.00;;;-1.88;100.00
19884;BME280;10104;50.732;10.174;2024-01-15T05:44:47;96319.59;;;-1.82;100.00
19884;BME280;10104;50.732;10.174;2024-01-15T05:47:28;96313.56;;;-1.83;100.00
19884;BME280;10104;50.732;10.174;2024-01-15T05:50:08;96317.50;;;-1.79;100.00
19884;BME280;10104;50.732;10.174;2024-01-15T05:52:49;96313.50;;;-1.73;100.00
19884;BME280;10104;50.732;10.174;2024-01-15T05:55:29;96314.25;;;-1.81;100.00
19884;BME280;10104;50.732;10.174;2024-01-15T05:58:09;96318.84;;;-1.75;100.00
19884;BME280;10104;50.732;10.174;2024-01-15T06:00:49;96322.25;;;-1.74;100.00
19884;BME280;10104;50.732;10.174;2024-01-15T06:03:30;96318.97;;;-1.76;100.00
19884;BME280;10104;50.732;10.174;2024-01-15T06:06:11;96311.88;;;-1.74;100.00
19884;BME280;10104;50.732;10.174;2024-01-15T06:08:51;96303.91;;;-1.73;100.00
19884;BME280;10104;50.732;10.174;2024-01-15T06:11:32;96298.91;;;-1.74;100.00
19884;BME280;10104;50.732;10.174;2024-01-15T06:14:12;96293.84;;;-1.76;100.00
19884;BME280;10104;50.732;10.174;2024-01-15T06:16:52;96283.34;;;-1.74;100.00
19884;BME280;10104;50.732;10.174;2024-01-15T06:19:32;96282.88;;;-1.70;100.00
19884;BME280;10104;50.732;10.174;2024-01-15T06:22:13;96292.94;;;-1.67;100.00
19884;BME280;10104;50.732;10.174;2024-01-15T06:24:53;96293.94;;;-1.68;100.00
19884;BME280;10104;50.732;10.174;2024-01-15T06:27:33;96289.84;;;-1.70;100.00
19884;BME280;10104;50.732;10.174;2024-01-15T06:30:14;96279.31;;;-1.69;100.00
19884;BME280;10104;50.732;10.174;2024-01-15T06:32:54;96277.00;;;-1.72;100.00
19884;BME280;10104;50.732;10.174;2024-01-15T06:35:35;96277.19;;;-1.73;100.00
19884;BME280;10104;50.732;10.174;2024-01-15T06:38:16;96287.09;;;-1.69;100.00
19884;BME280;10104;50.732;10.174;2024-01-15T06:40:56;96279.47;;;-1.70;100.00
19884;BME280;10104;50.732;10.174;2024-01-15T06:43:36;96283.47;;;-1.76;100.00
19884;BME280;10104;50.732;10.174;2024-01-15T06:46:22;96304.22;;;-1.76;100.00
19884;BME280;10104;50.732;10.174;2024-01-15T06:49:03;96280.41;;;-1.79;100.00
19884;BME280;10104;50.732;10.174;2024-01-15T06:51:43;96276.31;;;-1.82;100.00
19884;BME280;10104;50.732;10.174;2024-01-15T06:54:28;96284.75;;;-1.80;100.00
19884;BME280;10104;50.732;10.174;2024-01-15T06:57:08;96286.69;;;-1.82;100.00
19884;BME280;10104;50.732;10.174;2024-01-15T06:59:48;96293.66;;;-1.82;100.00
19884;BME280;10104;50.732;10.174;2024-01-15T07:02:29;96294.72;;;-1.93;100.00
19884;BME280;10104;50.732;10.174;2024-01-15T07:05:09;96298.13;;;-1.92;100.00
19884;BME280;10104;50.732;10.174;2024-01-15T07:07:50;96293.34;;;-1.97;100.00
19884;BME280;10104;50.732;10.174;2024-01-15T07:10:30;96287.75;;;-1.92;100.00
19884;BME280;10104;50.732;10.174;2024-01-15T07:13:13;96291.31;;;-1.93;100.00
19884;BME280;10104;50.732;10.174;2024-01-15T07:15:54;96286.94;;;-1.93;100.00
19884;BME280;10104;50.732;10.174;2024-01-15T07:18:34;96289.06;;;-1.88;100.00
19884;BME280;10104;50.732;10.174;2024-01-15T07:21:14;96288.78;;;-1.85;100.00
19884;BME280;10104;50.732;10.174;2024-01-15T07:23:54;96280.81;;;-1.84;100.00
19884;BME280;10104;50.732;10.174;2024-01-15T07:26:34;96291.19;;;-1.84;100.00
19884;BME280;10104;50.732;10.174;2024-01-15T07:29:15;96291.06;;;-1.82;100.00
19884;BME280;10104;50.732;10.174;2024-01-15T07:31:55;96302.47;;;-1.75;100.00
19884;BME280;10104;50.732;10.174;2024-01-15T07:34:35;96299.34;;;-1.79;100.00
19884;BME280;10104;50.732;10.174;2024-01-15T07:37:16;96306.94;;;-1.85;100.00
19884;BME280;10104;50.732;10.174;2024-01-15T07:39:56;96309.88;;;-1.80;100.00
19884;BME280;10104;50.732;10.174;2024-01-15T07:42:37;96316.03;;;-1.81;100.00
19884;BME280;10104;50.732;10.174;2024-01-15T07:45:18;96317.94;;;-1.83;100.00
19884;BME280;10104;50.732;10.174;2024-01-15T07:47:58;96322.50;;;-1.85;100.00
19884;BME280;10104;50.732;10.174;2024-01-15T07:50:39;96315.22;;;-1.82;100.00
19884;BME280;10104;50.732;10.174;2024-01-15T07:53:19;96323.88;;;-1.73;100.00
19884;BME280;10104;50.732;10.174;2024-01-15T07:55:59;96320.97;;;-1.70;100.00
19884;BME280;10104;50.732;10.174;2024-01-15T07:58:39;96316.81;;;-1.63;100.00
19884;BME280;10104;50.732;10.174;2024-01-15T08:01:19;96321.19;;;-1.64;100.00
19884;BME280;10104;50.732;10.174;2024-01-15T08:04:00;96322.34;;;-1.58;100.00
19884;BME280;10104;50.732;10.174;2024-01-15T08:06:40;96310.06;;;-1.56;100.00
19884;BME280;10104;50.732;10.174;2024-01-15T08:09:21;96323.53;;;-1.52;100.00
19884;BME280;10104;50.732;10.174;2024-01-15T08:12:01;96320.19;;;-1.45;100.00
19884;BME280;10104;50.732;10.174;2024-01-15T08:14:42;96305.56;;;-1.46;100.00
19884;BME280;10104;50.732;10.174;2024-01-15T08:17:22;96302.75;;;-1.52;100.00
19884;BME280;10104;50.732;10.174;2024-01-15T08:20:04;96305.22;;;-1.51;100.00
19884;BME280;10104;50.732;10.174;2024-01-15T08:22:45;96296.47;;;-1.50;100.00
19884;BME280;10104;50.732;10.174;2024-01-15T08:25:27;96295.50;;;-1.49;100.00
19884;BME280;10104;50.732;10.174;2024-01-15T08:28:07;96290.66;;;-1.44;100.00
19884;BME280;10104;50.732;10.174;2024-01-15T08:30:48;96306.38;;;-1.45;100.00
19884;BME280;10104;50.732;10.174;2024-01-15T08:33:29;96295.84;;;-1.44;100.00
19884;BME280;10104;50.732;10.174;2024-01-15T08:36:10;96295.19;;;-1.46;100.00
19884;BME280;10104;50.732;10.174;2024-01-15T08:38:50;96289.31;;;-1.48;100.00
19884;BME280;10104;50.732;10.174;2024-01-15T08:41:32;96291.28;;;-1.50;100.00
19884;BME280;10104;50.732;10.174;2024-01-15T08:44:12;96285.94;;;-1.48;100.00
19884;BME280;10104;50.732;10.174;2024-01-15T08:46:52;96285.78;;;-1.47;100.00
19884;BME280;10104;50.732;10.174;2024-01-15T08:49:32;96285.31;;;-1.42;100.00
19884;BME280;10104;50.732;10.174;2024-01-15T08:52:13;96295.53;;;-1.41;100.00
19884;BME280;10104;50.732;10.174;2024-01-15T08:54:54;96288.09;;;-1.36;100.00
19884;BME280;10104;50.732;10.174;2024-01-15T08:57:34;96290.41;;;-1.33;100.00
19884;BME280;10104;50.732;10.174;2024-01-15T09:00:15;96283.91;;;-1.37;100.00
19884;BME280;10104;50.732;10.174;2024-01-15T09:02:56;96293.66;;;-1.31;100.00
19884;BME280;10104;50.732;10.174;2024-01-15T09:05:36;96302.91;;;-1.28;100.00
19884;BME280;10104;50.732;10.174;2024-01-15T09:08:16;96281.59;;;-1.40;100.00
19884;BME280;10104;50.732;10.174;2024-01-15T09:10:57;96292.19;;;-1.33;100.00
19884;BME280;10104;50.732;10.174;2024-01-15T09:13:37;96300.97;;;-1.26;100.00
19884;BME280;10104;50.732;10.174;2024-01-15T09:16:17;96302.19;;;-1.12;100.00
19884;BME280;10104;50.732;10.174;2024-01-15T09:18:57;96283.50;;;-1.16;100.00
19884;BME280;10104;50.732;10.174;2024-01-15T09:21:39;96280.13;;;-1.08;100.00
19884;BME280;10104;50.732;10.174;2024-01-15T09:24:20;96276.63;;;-0.99;100.00
19884;BME280;10104;50.732;10.174;2024-01-15T09:27:07;96294.81;;;-0.91;100.00
19884;BME280;10104;50.732;10.174;2024-01-15T09:29:47;96264.50;;;-0.83;100.00
19884;BME280;10104;50.732;10.174;2024-01-15T09:32:27;96261.75;;;-0.81;100.00
19884;BME280;10104;50.732;10.174;2024-01-15T09:35:08;96260.91;;;-0.82;100.00
19884;BME280;10104;50.732;10.174;2024-01-15T09:37:48;96281.03;;;-0.84;100.00
19884;BME280;10104;50.732;10.174;2024-01-15T09:40:31;96276.81;;;-0.85;100.00
19884;BME280;10104;50.732;10.174;2024-01-15T09:43:12;96287.53;;;-0.88;100.00
19884;BME280;10104;50.732;10.174;2024-01-15T09:45:53;96277.78;;;-0.86;100.00
19884;BME280;10104;50.732;10.174;2024-01-15T09:48:34;96303.75;;;-0.86;100.00
19884;BME280;10104;50.732;10.174;2024-01-15T09:51:15;96298.56;;;-0.86;100.00
19884;BME280;10104;50.732;10.174;2024-01-15T09:53:57;96282.66;;;-0.83;100.00
19884;BME280;10104;50.732;10.174;2024-01-15T09:56:37;96276.84;;;-0.76;100.00
19884;BME280;10104;50.732;10.174;2024-01-15T09:59:18;96285.78;;;-0.71;100.00
19884;BME280;10104;50.732;10.174;2024-01-15T10:01:59;96290.84;;;-0.69;100.00
19884;BME280;10104;50.732;10.174;2024-01-15T10:04:40;96289.69;;;-0.67;100.00
19884;BME280;10104;50.732;10.174;2024-01-15T10:07:20;96284.16;;;-0.72;100.00
19884;BME280;10104;50.732;10.174;2024-01-15T10:10:02;96278.50;;;-0.59;100.00
19884;BME280;10104;50.732;10.174;2024-01-15T10:12:43;96277.88;;;-0.53;100.00
19884;BME280;10104;50.732;10.174;2024-01-15T10:15:25;96268.66;;;-0.39;100.00
19884;BME280;10104;50.732;10.174;2024-01-15T10:18:06;96280.97;;;-0.42;100.00
19884;BME280;10104;50.732;10.174;2024-01-15T10:20:47;96278.72;;;-0.45;100.00
19884;BME280;10104;50.732;10.174;2024-01-15T10:23:27;96268.00;;;-0.33;100.00
19884;BME280;10104;50.732;10.174;2024-01-15T10:26:08;96283.59;;;-0.33;100.00
19884;BME280;10104;50.732;10.174;2024-01-15T10:28:50;96264.59;;;-0.10;100.00
19884;BME280;10104;50.732;10.174;2024-01-15T10:31:31;96260.38;;;-0.19;100.00
19884;BME280;10104;50.732;10.174;2024-01-15T10:34:12;96253.88;;;-0.23;100.00
19884;BME280;10104;50.732;10.174;2024-01-15T10:36:53;96256.78;;;-0.18;100.00
19884;BME280;10104;50.732;10.174;2024-01-15T10:39:36;96234.22;;;-0.25;100.00
19884;BME280;10104;50.732;10.174;2024-01-15T10:42:18;96238.75;;;-0.27;100.00
19884;BME280;10104;50.732;10.174;2024-01-15T10:44:58;96229.97;;;-0.18;100.00
19884;BME280;10104;50.732;10.174;2024-01-15T10:47:38;96239.25;;;-0.16;100.00
19884;BME280;10104;50.732;10.174;2024-01-15T10:50:18;96243.13;;;-0.12;100.00
19884;BME280;10104;50.732;10.174;2024-01-15T10:52:59;96235.69;;;-0.15;100.00
19884;BME280;10104;50.732;10.174;2024-01-15T10:55:41;96228.50;;;-0.05;100.00
19884;BME280;10104;50.732;10.174;2024-01-15T10:58:22;96234.03;;;0.00;100.00
19884;BME280;10104;50.732;10.174;2024-01-15T11:01:04;96240.06;;;0.09;100.00
19884;BME280;10104;50.732;10.174;2024-01-15T11:03:45;96250.44;;;0.42;100.00
19884;BME280;10104;50.732;10.174;2024-01-15T11:06:27;96236.09;;;0.37;100.00
19884;BME280;10104;50.732;10.174;2024-01-15T11:09:09;96233.66;;;0.44;100.00
19884;BME280;10104;50.732;10.174;2024-01-15T11:11:52;96220.31;;;0.55;100.00
19884;BME280;10104;50.732;10.174;2024-01-15T11:14:47;96228.44;;;0.52;100.00
19884;BME280;10104;50.732;10.174;2024-01-15T11:17:57;96229.91;;;0.38;100.00
19884;BME280;10104;50.732;10.174;2024-01-15T11:20:38;96229.75;;;0.40;100.00
19884;BME280;10104;50.732;10.174;2024-01-15T11:26:45;96225.38;;;0.32;100.00
19884;BME280;10104;50.732;10.174;2024-01-15T11:32:09;96223.16;;;0.05;100.00
19884;BME280;10104;50.732;10.174;2024-01-15T11:34:54;96231.78;;;-0.03;100.00
19884;BME280;10104;50.732;10.174;2024-01-15T11:40:38;96213.19;;;0.25;100.00
19884;BME280;10104;50.732;10.174;2024-01-15T11:43:19;96223.91;;;0.38;100.00
19884;BME280;10104;50.732;10.174;2024-01-15T11:46:02;96226.03;;;0.43;100.00
19884;BME280;10104;50.732;10.174;2024-01-15T11:48:44;96226.03;;;0.43;100.00
19884;BME280;10104;50.732;10.174;2024-01-15T11:51:25;96218.84;;;0.45;100.00
19884;BME280;10104;50.732;10.174;2024-01-15T11:54:08;96217.19;;;0.52;100.00
19884;BME280;10104;50.732;10.174;2024-01-15T11:56:50;96207.31;;;0.39;100.00
19884;BME280;10104;50.732;10.174;2024-01-15T11:59:31;96205.53;;;0.39;100.00
19884;BME280;10104;50.732;10.174;2024-01-15T12:02:11;96214.50;;;0.21;100.00
19884;BME280;10104;50.732;10.174;2024-01-15T12:04:52;96199.41;;;0.16;100.00
19884;BME280;10104;50.732;10.174;2024-01-15T12:07:33;96190.94;;;0.14;100.00
19884;BME280;10104;50.732;10.174;2024-01-15T12:10:18;96185.72;;;0.30;100.00
19884;BME280;10104;50.732;10.174;2024-01-15T12:13:00;96171.66;;;0.48;100.00
19884;BME280;10104;50.732;10.174;2024-01-15T12:15:45;96177.16;;;0.61;100.00
19884;BME280;10104;50.732;10.174;2024-01-15T12:18:26;96187.06;;;0.57;100.00
19884;BME280;10104;50.732;10.174;2024-01-15T12:21:06;96185.09;;;0.67;100.00
19884;BME280;10104;50.732;10.174;2024-01-15T12:23:48;96180.53;;;0.69;100.00
19884;BME280;10104;50.732;10.174;2024-01-15T12:26:29;96192.59;;;0.62;100.00
19884;BME280;10104;50.732;10.174;2024-01-15T12:29:11;96178.28;;;0.58;100.00
19884;BME280;10104;50.732;10.174;2024-01-15T12:31:53;96173.59;;;0.54;100.00
19884;BME280;10104;50.732;10.174;2024-01-15T12:34:33;96184.47;;;0.65;100.00
19884;BME280;10104;50.732;10.174;2024-01-15T12:37:14;96189.69;;;0.57;100.00
19884;BME280;10104;50.732;10.174;2024-01-15T12:39:54;96174.44;;;0.46;100.00
19884;BME280;10104;50.732;10.174;2024-01-15T12:42:41;96170.84;;;0.55;100.00
19884;BME280;10104;50.732;10.174;2024-01-15T12:45:23;96182.84;;;0.56;100.00
19884;BME280;10104;50.732;10.174;2024-01-15T12:48:04;96169.69;;;0.50;100.00
19884;BME280;10104;50.732;10.174;2024-01-15T12:50:45;96180.97;;;0.42;100.00
19884;BME280;10104;50.732;10.174;2024-01-15T12:53:26;96176.88;;;0.39;100.00
19884;BME280;10104;50.732;10.174;2024-01-15T12:56:06;96186.69;;;0.29;100.00
19884;BME280;10104;50.732;10.174;2024-01-15T12:58:46;96181.34;;;0.23;100.00
19884;BME280;10104;50.732;10.174;2024-01-15T13:01:26;96175.97;;;0.16;100.00
19884;BME280;10104;50.732;10.174;2024-01-15T13:04:07;96186.69;;;0.13;100.00
19884;BME280;10104;50.732;10.174;2024-01-15T13:06:51;96194.19;;;0.16;100.00
19884;BME280;10104;50.732;10.174;2024-01-15T13:09:31;96193.22;;;0.17;100.00
19884;BME280;10104;50.732;10.174;2024-01-15T13:12:11;96202.31;;;0.13;100.00
19884;BME280;10104;50.732;10.174;2024-01-15T13:14:52;96191.94;;;0.05;100.00
19884;BME280;10104;50.732;10.174;2024-01-15T13:17:32;96192.91;;;-0.04;100.00
19884;BME280;10104;50.732;10.174;2024-01-15T13:20:12;96200.56;;;-0.03;100.00
19884;BME280;10104;50.732;10.174;2024-01-15T13:22:53;96197.81;;;-0.09;100.00
19884;BME280;10104;50.732;10.174;2024-01-15T13:25:33;96185.94;;;-0.12;100.00
19884;BME280;10104;50.732;10.174;2024-01-15T13:28:18;96191.47;;;-0.07;100.00
19884;BME280;10104;50.732;10.174;2024-01-15T13:30:58;96207.53;;;-0.03;100.00
19884;BME280;10104;50.732;10.174;2024-01-15T13:33:38;96207.25;;;0.00;100.00
19884;BME280;10104;50.732;10.174;2024-01-15T13:36:25;96212.59;;;-0.02;100.00
19884;BME280;10104;50.732;10.174;2024-01-15T13:39:06;96215.34;;;-0.11;100.00
19884;BME280;10104;50.732;10.174;2024-01-15T13:41:49;96211.31;;;-0.14;100.00
19884;BME280;10104;50.732;10.174;2024-01-15T13:44:29;96211.78;;;-0.18;100.00
19884;BME280;10104;50.732;10.174;2024-01-15T13:47:09;96209.53;;;-0.13;100.00
19884;BME280;10104;50.732;10.174;2024-01-15T13:49:50;96210.66;;;-0.08;100.00
19884;BME280;10104;50.732;10.174;2024-01-15T13:52:30;96223.00;;;-0.10;100.00
19884;BME280;10104;50.732;10.174;2024-01-15T13:55:11;96225.75;;;-0.11;100.00
19884;BME280;10104;50.732;10.174;2024-01-15T13:57:51;96219.09;;;-0.14;100.00
19884;BME280;10104;50.732;10.174;2024-01-15T14:00:32;96222.16;;;-0.18;100.00